<?xml version="1.0" encoding="UTF-8" standalone="no" ?>
<gpx xmlns="http://www.topografix.com/GPX/1/1" xmlns:xsi="http://www.w3.org/2001/XMLSchema-instance" xsi:schemaLocation="http://www.topografix.com/GPX/1/1 http://www.topografix.com/GPX/1/1/gpx.xsd" version="1.1" creator="VisuGPX - https://www.visugpx.com">
  <metadata>
    <name>Mont Aiguille voie normale (Vercors)</name>
    <desc><![CDATA[Au départ de Saint Michel les Portes.
Photos ici:[url]https://photos.app.goo.gl/VTJ6NsUVECATBs6L9[/url]
.
Autres sorties dans le Vercors --> [url]https://www.visugpx.com/membres/87/vercors/[/url]]]></desc>
  </metadata>
  <trk>
    <name><![CDATA[2018-06-24 09:22]]></name>
    <desc><![CDATA[<p>Heure de départ: 06/09/2018 09:22</p><p>Heure d'arrivée: 06/24/2018 16:26</p><p>Distance: 18,8 km (12:36)</p><p>Temps déplacement: 05:29</p><p>Vitesse moyenne: 1,49 km/h</p><p>Vitesse moyenne mouv.: 3,42 km/h</p><p>Vitesse Max.: 20,1km/h</p><p>Altitude minimale: 1102 m</p><p>Altitude maximale: 2106 m</p><p>Vitesse de montée: 245,7 m/h</p><p>Vitesse de descente: -344,6 m/h</p><p>Gain d'altitude: 1759 m</p><p>Perte d'altitude: -1776 m</p><p>Temps de montée: 07:09</p><p>Temps de descente: 05:09</p><hr align="center" width="480" style="height: 2px; width: 517px"/>]]></desc>
    <trkseg>
      <trkpt lat="44.85789" lon="5.55761">
        <ele>1166.05</ele>
        <time>2018-06-24T06:23:41Z</time>
      </trkpt>
      <trkpt lat="44.85803" lon="5.55742">
        <ele>1127.89</ele>
        <time>2018-06-24T06:26:27Z</time>
      </trkpt>
      <trkpt lat="44.85801" lon="5.55716">
        <ele>1120.27</ele>
        <time>2018-06-24T06:26:51Z</time>
      </trkpt>
      <trkpt lat="44.85799" lon="5.55688">
        <ele>1119.24</ele>
        <time>2018-06-24T06:27:08Z</time>
      </trkpt>
      <trkpt lat="44.85798" lon="5.55661">
        <ele>1113.29</ele>
        <time>2018-06-24T06:27:24Z</time>
      </trkpt>
      <trkpt lat="44.85786" lon="5.5564">
        <ele>1118.84</ele>
        <time>2018-06-24T06:27:51Z</time>
      </trkpt>
      <trkpt lat="44.85775" lon="5.5562">
        <ele>1115</ele>
        <time>2018-06-24T06:28:09Z</time>
      </trkpt>
      <trkpt lat="44.85761" lon="5.55601">
        <ele>1124.01</ele>
        <time>2018-06-24T06:28:28Z</time>
      </trkpt>
      <trkpt lat="44.85757" lon="5.55575">
        <ele>1134</ele>
        <time>2018-06-24T06:28:55Z</time>
      </trkpt>
      <trkpt lat="44.85751" lon="5.5555">
        <ele>1142.84</ele>
        <time>2018-06-24T06:29:12Z</time>
      </trkpt>
      <trkpt lat="44.85746" lon="5.55526">
        <ele>1138.25</ele>
        <time>2018-06-24T06:29:28Z</time>
      </trkpt>
      <trkpt lat="44.85746" lon="5.555">
        <ele>1135.06</ele>
        <time>2018-06-24T06:29:43Z</time>
      </trkpt>
      <trkpt lat="44.85746" lon="5.55474">
        <ele>1133.09</ele>
        <time>2018-06-24T06:30:01Z</time>
      </trkpt>
      <trkpt lat="44.85739" lon="5.5545">
        <ele>1143.2</ele>
        <time>2018-06-24T06:30:17Z</time>
      </trkpt>
      <trkpt lat="44.85723" lon="5.55434">
        <ele>1151.8</ele>
        <time>2018-06-24T06:30:35Z</time>
      </trkpt>
      <trkpt lat="44.85707" lon="5.5542">
        <ele>1165.08</ele>
        <time>2018-06-24T06:30:53Z</time>
      </trkpt>
      <trkpt lat="44.85694" lon="5.55403">
        <ele>1167.25</ele>
        <time>2018-06-24T06:31:11Z</time>
      </trkpt>
      <trkpt lat="44.85682" lon="5.55382">
        <ele>1168.04</ele>
        <time>2018-06-24T06:31:30Z</time>
      </trkpt>
      <trkpt lat="44.85672" lon="5.55361">
        <ele>1167.26</ele>
        <time>2018-06-24T06:31:46Z</time>
      </trkpt>
      <trkpt lat="44.85663" lon="5.55339">
        <ele>1169.85</ele>
        <time>2018-06-24T06:32:08Z</time>
      </trkpt>
      <trkpt lat="44.85649" lon="5.5532">
        <ele>1180.85</ele>
        <time>2018-06-24T06:32:31Z</time>
      </trkpt>
      <trkpt lat="44.85639" lon="5.55299">
        <ele>1184.04</ele>
        <time>2018-06-24T06:32:47Z</time>
      </trkpt>
      <trkpt lat="44.85633" lon="5.55275">
        <ele>1188.85</ele>
        <time>2018-06-24T06:33:03Z</time>
      </trkpt>
      <trkpt lat="44.85627" lon="5.55249">
        <ele>1190.04</ele>
        <time>2018-06-24T06:33:19Z</time>
      </trkpt>
      <trkpt lat="44.85617" lon="5.55226">
        <ele>1191.02</ele>
        <time>2018-06-24T06:33:35Z</time>
      </trkpt>
      <trkpt lat="44.85614" lon="5.552">
        <ele>1185.09</ele>
        <time>2018-06-24T06:33:51Z</time>
      </trkpt>
      <trkpt lat="44.85615" lon="5.55174">
        <ele>1184.21</ele>
        <time>2018-06-24T06:34:08Z</time>
      </trkpt>
      <trkpt lat="44.85622" lon="5.55147">
        <ele>1186.05</ele>
        <time>2018-06-24T06:34:28Z</time>
      </trkpt>
      <trkpt lat="44.85618" lon="5.55119">
        <ele>1190.25</ele>
        <time>2018-06-24T06:34:42Z</time>
      </trkpt>
      <trkpt lat="44.85622" lon="5.55093">
        <ele>1194.8</ele>
        <time>2018-06-24T06:34:58Z</time>
      </trkpt>
      <trkpt lat="44.85617" lon="5.55067">
        <ele>1201.8</ele>
        <time>2018-06-24T06:35:12Z</time>
      </trkpt>
      <trkpt lat="44.85613" lon="5.55042">
        <ele>1209.05</ele>
        <time>2018-06-24T06:35:38Z</time>
      </trkpt>
      <trkpt lat="44.85613" lon="5.55016">
        <ele>1208.09</ele>
        <time>2018-06-24T06:35:48Z</time>
      </trkpt>
      <trkpt lat="44.85611" lon="5.54989">
        <ele>1207.02</ele>
        <time>2018-06-24T06:36:04Z</time>
      </trkpt>
      <trkpt lat="44.85612" lon="5.54963">
        <ele>1209.81</ele>
        <time>2018-06-24T06:36:22Z</time>
      </trkpt>
      <trkpt lat="44.8561" lon="5.54937">
        <ele>1212.09</ele>
        <time>2018-06-24T06:36:36Z</time>
      </trkpt>
      <trkpt lat="44.85612" lon="5.5491">
        <ele>1210.05</ele>
        <time>2018-06-24T06:36:49Z</time>
      </trkpt>
      <trkpt lat="44.85609" lon="5.54883">
        <ele>1213.18</ele>
        <time>2018-06-24T06:37:05Z</time>
      </trkpt>
      <trkpt lat="44.856" lon="5.54861">
        <ele>1218.76</ele>
        <time>2018-06-24T06:37:17Z</time>
      </trkpt>
      <trkpt lat="44.85588" lon="5.54841">
        <ele>1216.85</ele>
        <time>2018-06-24T06:37:34Z</time>
      </trkpt>
      <trkpt lat="44.85571" lon="5.54832">
        <ele>1217.04</ele>
        <time>2018-06-24T06:37:47Z</time>
      </trkpt>
      <trkpt lat="44.85555" lon="5.54817">
        <ele>1220.01</ele>
        <time>2018-06-24T06:38:06Z</time>
      </trkpt>
      <trkpt lat="44.84729" lon="5.54229">
        <ele>1338.98</ele>
        <time>2018-06-24T06:53:36Z</time>
      </trkpt>
      <trkpt lat="44.84737" lon="5.54205">
        <ele>1335.09</ele>
        <time>2018-06-24T06:53:41Z</time>
      </trkpt>
      <trkpt lat="44.84718" lon="5.54205">
        <ele>1339.81</ele>
        <time>2018-06-24T06:53:59Z</time>
      </trkpt>
      <trkpt lat="44.84704" lon="5.54221">
        <ele>1347.25</ele>
        <time>2018-06-24T06:54:18Z</time>
      </trkpt>
      <trkpt lat="44.84687" lon="5.54234">
        <ele>1351.21</ele>
        <time>2018-06-24T06:54:38Z</time>
      </trkpt>
      <trkpt lat="44.84671" lon="5.54251">
        <ele>1365.01</ele>
        <time>2018-06-24T06:55:01Z</time>
      </trkpt>
      <trkpt lat="44.84411" lon="5.54142">
        <ele>1419.05</ele>
        <time>2018-06-24T07:06:40Z</time>
      </trkpt>
      <trkpt lat="44.84408" lon="5.54116">
        <ele>1442.84</ele>
        <time>2018-06-24T07:07:21Z</time>
      </trkpt>
      <trkpt lat="44.84405" lon="5.5409">
        <ele>1447.17</ele>
        <time>2018-06-24T07:08:16Z</time>
      </trkpt>
      <trkpt lat="44.84404" lon="5.54064">
        <ele>1458.84</ele>
        <time>2018-06-24T07:08:46Z</time>
      </trkpt>
      <trkpt lat="44.84405" lon="5.54038">
        <ele>1465.04</ele>
        <time>2018-06-24T07:09:08Z</time>
      </trkpt>
      <trkpt lat="44.84398" lon="5.54015">
        <ele>1475.01</ele>
        <time>2018-06-24T07:09:31Z</time>
      </trkpt>
      <trkpt lat="44.84397" lon="5.53989">
        <ele>1484.81</ele>
        <time>2018-06-24T07:10:01Z</time>
      </trkpt>
      <trkpt lat="44.84385" lon="5.5397">
        <ele>1484.83</ele>
        <time>2018-06-24T07:10:34Z</time>
      </trkpt>
      <trkpt lat="44.84367" lon="5.5397">
        <ele>1481.25</ele>
        <time>2018-06-24T07:11:07Z</time>
      </trkpt>
      <trkpt lat="44.8435" lon="5.53986">
        <ele>1489.24</ele>
        <time>2018-06-24T07:11:43Z</time>
      </trkpt>
      <trkpt lat="44.84332" lon="5.53983">
        <ele>1505.84</ele>
        <time>2018-06-24T07:12:28Z</time>
      </trkpt>
      <trkpt lat="44.84315" lon="5.53988">
        <ele>1508.05</ele>
        <time>2018-06-24T07:12:56Z</time>
      </trkpt>
      <trkpt lat="44.84296" lon="5.53987">
        <ele>1513.89</ele>
        <time>2018-06-24T07:13:41Z</time>
      </trkpt>
      <trkpt lat="44.8428" lon="5.53976">
        <ele>1520.89</ele>
        <time>2018-06-24T07:14:21Z</time>
      </trkpt>
      <trkpt lat="44.84267" lon="5.53957">
        <ele>1522.69</ele>
        <time>2018-06-24T07:14:53Z</time>
      </trkpt>
      <trkpt lat="44.84273" lon="5.53932">
        <ele>1538.85</ele>
        <time>2018-06-24T07:15:38Z</time>
      </trkpt>
      <trkpt lat="44.84254" lon="5.5393">
        <ele>1529.46</ele>
        <time>2018-06-24T07:16:11Z</time>
      </trkpt>
      <trkpt lat="44.84244" lon="5.53951">
        <ele>1529.05</ele>
        <time>2018-06-24T07:16:33Z</time>
      </trkpt>
      <trkpt lat="44.84239" lon="5.53976">
        <ele>1538.05</ele>
        <time>2018-06-24T07:17:03Z</time>
      </trkpt>
      <trkpt lat="44.84231" lon="5.53999">
        <ele>1542.85</ele>
        <time>2018-06-24T07:17:28Z</time>
      </trkpt>
      <trkpt lat="44.84222" lon="5.54021">
        <ele>1550.05</ele>
        <time>2018-06-24T07:17:58Z</time>
      </trkpt>
      <trkpt lat="44.84228" lon="5.54046">
        <ele>1544.01</ele>
        <time>2018-06-24T07:18:22Z</time>
      </trkpt>
      <trkpt lat="44.84235" lon="5.54072">
        <ele>1549.27</ele>
        <time>2018-06-24T07:18:50Z</time>
      </trkpt>
      <trkpt lat="44.84231" lon="5.54097">
        <ele>1554.21</ele>
        <time>2018-06-24T07:19:49Z</time>
      </trkpt>
      <trkpt lat="44.8424" lon="5.54121">
        <ele>1560.05</ele>
        <time>2018-06-24T07:20:18Z</time>
      </trkpt>
      <trkpt lat="44.84244" lon="5.54146">
        <ele>1564.01</ele>
        <time>2018-06-24T07:20:42Z</time>
      </trkpt>
      <trkpt lat="44.84245" lon="5.54172">
        <ele>1564.26</ele>
        <time>2018-06-24T07:21:06Z</time>
      </trkpt>
      <trkpt lat="44.84254" lon="5.54196">
        <ele>1576.4</ele>
        <time>2018-06-24T07:21:38Z</time>
      </trkpt>
      <trkpt lat="44.84262" lon="5.5422">
        <ele>1578.01</ele>
        <time>2018-06-24T07:21:58Z</time>
      </trkpt>
      <trkpt lat="44.84262" lon="5.54245">
        <ele>1575.04</ele>
        <time>2018-06-24T07:22:19Z</time>
      </trkpt>
      <trkpt lat="44.84264" lon="5.54271">
        <ele>1581.04</ele>
        <time>2018-06-24T07:22:47Z</time>
      </trkpt>
      <trkpt lat="44.84255" lon="5.54294">
        <ele>1587.81</ele>
        <time>2018-06-24T07:23:14Z</time>
      </trkpt>
      <trkpt lat="44.8425" lon="5.54319">
        <ele>1592.99</ele>
        <time>2018-06-24T07:23:39Z</time>
      </trkpt>
      <trkpt lat="44.84254" lon="5.54344">
        <ele>1606.24</ele>
        <time>2018-06-24T07:24:09Z</time>
      </trkpt>
      <trkpt lat="44.84264" lon="5.54365">
        <ele>1609.86</ele>
        <time>2018-06-24T07:24:36Z</time>
      </trkpt>
      <trkpt lat="44.84277" lon="5.54382">
        <ele>1619.01</ele>
        <time>2018-06-24T07:25:04Z</time>
      </trkpt>
      <trkpt lat="44.8429" lon="5.54402">
        <ele>1617.7</ele>
        <time>2018-06-24T07:25:26Z</time>
      </trkpt>
      <trkpt lat="44.84304" lon="5.54418">
        <ele>1613.84</ele>
        <time>2018-06-24T07:25:44Z</time>
      </trkpt>
      <trkpt lat="44.84316" lon="5.54438">
        <ele>1616.01</ele>
        <time>2018-06-24T07:26:08Z</time>
      </trkpt>
      <trkpt lat="44.84328" lon="5.54458">
        <ele>1621.24</ele>
        <time>2018-06-24T07:26:33Z</time>
      </trkpt>
      <trkpt lat="44.84339" lon="5.5448">
        <ele>1625.97</ele>
        <time>2018-06-24T07:26:58Z</time>
      </trkpt>
      <trkpt lat="44.84343" lon="5.54505">
        <ele>1627.25</ele>
        <time>2018-06-24T07:27:24Z</time>
      </trkpt>
      <trkpt lat="44.84354" lon="5.54526">
        <ele>1634.85</ele>
        <time>2018-06-24T07:27:48Z</time>
      </trkpt>
      <trkpt lat="44.84359" lon="5.54551">
        <ele>1641.25</ele>
        <time>2018-06-24T07:28:19Z</time>
      </trkpt>
      <trkpt lat="44.84366" lon="5.54574">
        <ele>1644.01</ele>
        <time>2018-06-24T07:28:45Z</time>
      </trkpt>
      <trkpt lat="44.84379" lon="5.54593">
        <ele>1645.06</ele>
        <time>2018-06-24T07:29:08Z</time>
      </trkpt>
      <trkpt lat="44.84393" lon="5.54611">
        <ele>1652.01</ele>
        <time>2018-06-24T07:29:43Z</time>
      </trkpt>
      <trkpt lat="44.84375" lon="5.54613">
        <ele>1660.06</ele>
        <time>2018-06-24T07:30:45Z</time>
      </trkpt>
      <trkpt lat="44.84357" lon="5.5461">
        <ele>1668.84</ele>
        <time>2018-06-24T07:31:15Z</time>
      </trkpt>
      <trkpt lat="44.84341" lon="5.54596">
        <ele>1676.08</ele>
        <time>2018-06-24T07:31:44Z</time>
      </trkpt>
      <trkpt lat="44.84324" lon="5.54584">
        <ele>1679.21</ele>
        <time>2018-06-24T07:32:03Z</time>
      </trkpt>
      <trkpt lat="44.84312" lon="5.54565">
        <ele>1682.1</ele>
        <time>2018-06-24T07:32:32Z</time>
      </trkpt>
      <trkpt lat="44.84295" lon="5.54557">
        <ele>1671.01</ele>
        <time>2018-06-24T07:36:01Z</time>
      </trkpt>
      <trkpt lat="44.84276" lon="5.54552">
        <ele>1677.22</ele>
        <time>2018-06-24T07:36:28Z</time>
      </trkpt>
      <trkpt lat="44.84067" lon="5.54718">
        <ele>1780.45</ele>
        <time>2018-06-24T07:51:37Z</time>
      </trkpt>
      <trkpt lat="44.84034" lon="5.54745">
        <ele>1784.55</ele>
        <time>2018-06-24T07:51:39Z</time>
      </trkpt>
      <trkpt lat="44.84099" lon="5.54696">
        <ele>1803.35</ele>
        <time>2018-06-24T07:51:45Z</time>
      </trkpt>
      <trkpt lat="44.8408" lon="5.54697">
        <ele>1798.1</ele>
        <time>2018-06-24T07:51:47Z</time>
      </trkpt>
      <trkpt lat="44.84081" lon="5.54796">
        <ele>1821.01</ele>
        <time>2018-06-24T08:11:56Z</time>
      </trkpt>
      <trkpt lat="44.84092" lon="5.54757">
        <ele>1823.44</ele>
        <time>2018-06-24T08:12:22Z</time>
      </trkpt>
      <trkpt lat="44.84109" lon="5.54788">
        <ele>1862.05</ele>
        <time>2018-06-24T08:32:00Z</time>
      </trkpt>
      <trkpt lat="44.84093" lon="5.54808">
        <ele>1849.25</ele>
        <time>2018-06-24T08:32:02Z</time>
      </trkpt>
      <trkpt lat="44.84092" lon="5.54782">
        <ele>1844.83</ele>
        <time>2018-06-24T08:36:39Z</time>
      </trkpt>
      <trkpt lat="44.84095" lon="5.54836">
        <ele>1853.45</ele>
        <time>2018-06-24T08:52:10Z</time>
      </trkpt>
      <trkpt lat="44.8409" lon="5.54808">
        <ele>1878.73</ele>
        <time>2018-06-24T08:52:11Z</time>
      </trkpt>
      <trkpt lat="44.84094" lon="5.54784">
        <ele>1888.05</ele>
        <time>2018-06-24T08:55:12Z</time>
      </trkpt>
      <trkpt lat="44.8408" lon="5.54767">
        <ele>1888.09</ele>
        <time>2018-06-24T09:03:51Z</time>
      </trkpt>
      <trkpt lat="44.84064" lon="5.54754">
        <ele>1907.08</ele>
        <time>2018-06-24T09:06:15Z</time>
      </trkpt>
      <trkpt lat="44.84081" lon="5.54746">
        <ele>1924.84</ele>
        <time>2018-06-24T09:07:21Z</time>
      </trkpt>
      <trkpt lat="44.84062" lon="5.54749">
        <ele>1929.45</ele>
        <time>2018-06-24T09:08:27Z</time>
      </trkpt>
      <trkpt lat="44.84044" lon="5.54748">
        <ele>1921.05</ele>
        <time>2018-06-24T09:09:26Z</time>
      </trkpt>
      <trkpt lat="44.84028" lon="5.54763">
        <ele>1920.04</ele>
        <time>2018-06-24T09:10:15Z</time>
      </trkpt>
      <trkpt lat="44.84006" lon="5.54763">
        <ele>1910.69</ele>
        <time>2018-06-24T09:11:36Z</time>
      </trkpt>
      <trkpt lat="44.84023" lon="5.5475">
        <ele>1917.78</ele>
        <time>2018-06-24T09:11:48Z</time>
      </trkpt>
      <trkpt lat="44.84041" lon="5.54739">
        <ele>1928.61</ele>
        <time>2018-06-24T09:15:48Z</time>
      </trkpt>
      <trkpt lat="44.84023" lon="5.54742">
        <ele>1920.05</ele>
        <time>2018-06-24T09:19:44Z</time>
      </trkpt>
      <trkpt lat="44.84003" lon="5.54745">
        <ele>1911.54</ele>
        <time>2018-06-24T09:24:16Z</time>
      </trkpt>
      <trkpt lat="44.84021" lon="5.54738">
        <ele>1915.84</ele>
        <time>2018-06-24T09:25:28Z</time>
      </trkpt>
      <trkpt lat="44.84006" lon="5.54724">
        <ele>1970.04</ele>
        <time>2018-06-24T09:44:11Z</time>
      </trkpt>
      <trkpt lat="44.84014" lon="5.54747">
        <ele>1978.25</ele>
        <time>2018-06-24T09:47:28Z</time>
      </trkpt>
      <trkpt lat="44.84016" lon="5.54772">
        <ele>1974.09</ele>
        <time>2018-06-24T10:10:47Z</time>
      </trkpt>
      <trkpt lat="44.84024" lon="5.54798">
        <ele>1970.1</ele>
        <time>2018-06-24T10:12:51Z</time>
      </trkpt>
      <trkpt lat="44.84005" lon="5.54796">
        <ele>1994.07</ele>
        <time>2018-06-24T10:28:42Z</time>
      </trkpt>
      <trkpt lat="44.83987" lon="5.54803">
        <ele>1990.38</ele>
        <time>2018-06-24T10:31:32Z</time>
      </trkpt>
      <trkpt lat="44.84007" lon="5.54805">
        <ele>1999.65</ele>
        <time>2018-06-24T10:32:02Z</time>
      </trkpt>
      <trkpt lat="44.84009" lon="5.54831">
        <ele>2029.01</ele>
        <time>2018-06-24T10:36:26Z</time>
      </trkpt>
      <trkpt lat="44.84004" lon="5.54855">
        <ele>2055.05</ele>
        <time>2018-06-24T10:42:41Z</time>
      </trkpt>
      <trkpt lat="44.8402" lon="5.54871">
        <ele>2055.05</ele>
        <time>2018-06-24T10:51:41Z</time>
      </trkpt>
      <trkpt lat="44.84034" lon="5.54888">
        <ele>2056.05</ele>
        <time>2018-06-24T10:52:07Z</time>
      </trkpt>
      <trkpt lat="44.84046" lon="5.54908">
        <ele>2057.05</ele>
        <time>2018-06-24T10:52:34Z</time>
      </trkpt>
      <trkpt lat="44.8406" lon="5.54925">
        <ele>2060.05</ele>
        <time>2018-06-24T10:53:10Z</time>
      </trkpt>
      <trkpt lat="44.84073" lon="5.54943">
        <ele>2063.05</ele>
        <time>2018-06-24T10:53:56Z</time>
      </trkpt>
      <trkpt lat="44.84092" lon="5.54943">
        <ele>2071.85</ele>
        <time>2018-06-24T10:54:51Z</time>
      </trkpt>
      <trkpt lat="44.84109" lon="5.54952">
        <ele>2077</ele>
        <time>2018-06-24T10:55:20Z</time>
      </trkpt>
      <trkpt lat="44.84126" lon="5.54961">
        <ele>2080.25</ele>
        <time>2018-06-24T10:55:42Z</time>
      </trkpt>
      <trkpt lat="44.84131" lon="5.54986">
        <ele>2080.88</ele>
        <time>2018-06-24T10:56:20Z</time>
      </trkpt>
      <trkpt lat="44.84126" lon="5.55011">
        <ele>2078.09</ele>
        <time>2018-06-24T10:56:39Z</time>
      </trkpt>
      <trkpt lat="44.84128" lon="5.55038">
        <ele>2074.05</ele>
        <time>2018-06-24T10:56:57Z</time>
      </trkpt>
      <trkpt lat="44.84135" lon="5.55062">
        <ele>2073.04</ele>
        <time>2018-06-24T10:57:14Z</time>
      </trkpt>
      <trkpt lat="44.84145" lon="5.55084">
        <ele>2072.05</ele>
        <time>2018-06-24T10:57:30Z</time>
      </trkpt>
      <trkpt lat="44.84157" lon="5.55104">
        <ele>2072.01</ele>
        <time>2018-06-24T10:57:55Z</time>
      </trkpt>
      <trkpt lat="44.84169" lon="5.55125">
        <ele>2072.01</ele>
        <time>2018-06-24T10:58:18Z</time>
      </trkpt>
      <trkpt lat="44.84163" lon="5.5515">
        <ele>2075.85</ele>
        <time>2018-06-24T10:58:40Z</time>
      </trkpt>
      <trkpt lat="44.84168" lon="5.55175">
        <ele>2082.05</ele>
        <time>2018-06-24T10:59:20Z</time>
      </trkpt>
      <trkpt lat="44.84164" lon="5.552">
        <ele>2083.05</ele>
        <time>2018-06-24T10:59:56Z</time>
      </trkpt>
      <trkpt lat="44.84177" lon="5.55218">
        <ele>2086.06</ele>
        <time>2018-06-24T11:00:45Z</time>
      </trkpt>
      <trkpt lat="44.84194" lon="5.5523">
        <ele>2096.04</ele>
        <time>2018-06-24T11:01:36Z</time>
      </trkpt>
      <trkpt lat="44.84201" lon="5.55254">
        <ele>2106.03</ele>
        <time>2018-06-24T11:02:13Z</time>
      </trkpt>
      <trkpt lat="44.84215" lon="5.55271">
        <ele>2101.09</ele>
        <time>2018-06-24T11:02:46Z</time>
      </trkpt>
      <trkpt lat="44.84208" lon="5.55296">
        <ele>2103.85</ele>
        <time>2018-06-24T11:03:15Z</time>
      </trkpt>
      <trkpt lat="44.84201" lon="5.55273">
        <ele>2106.09</ele>
        <time>2018-06-24T11:07:24Z</time>
      </trkpt>
      <trkpt lat="44.84199" lon="5.55247">
        <ele>2098.05</ele>
        <time>2018-06-24T11:08:07Z</time>
      </trkpt>
      <trkpt lat="44.84187" lon="5.55227">
        <ele>2096.25</ele>
        <time>2018-06-24T11:08:45Z</time>
      </trkpt>
      <trkpt lat="44.84178" lon="5.55205">
        <ele>2091.05</ele>
        <time>2018-06-24T11:09:15Z</time>
      </trkpt>
      <trkpt lat="44.84173" lon="5.55179">
        <ele>2089.25</ele>
        <time>2018-06-24T11:09:42Z</time>
      </trkpt>
      <trkpt lat="44.84167" lon="5.55155">
        <ele>2085.25</ele>
        <time>2018-06-24T11:10:09Z</time>
      </trkpt>
      <trkpt lat="44.84162" lon="5.5513">
        <ele>2083.25</ele>
        <time>2018-06-24T11:10:39Z</time>
      </trkpt>
      <trkpt lat="44.84158" lon="5.55105">
        <ele>2080.05</ele>
        <time>2018-06-24T11:11:09Z</time>
      </trkpt>
      <trkpt lat="44.84143" lon="5.5509">
        <ele>2077.06</ele>
        <time>2018-06-24T11:11:31Z</time>
      </trkpt>
      <trkpt lat="44.84134" lon="5.55068">
        <ele>2075.06</ele>
        <time>2018-06-24T11:11:50Z</time>
      </trkpt>
      <trkpt lat="44.84123" lon="5.55047">
        <ele>2076.05</ele>
        <time>2018-06-24T11:12:12Z</time>
      </trkpt>
      <trkpt lat="44.84111" lon="5.55026">
        <ele>2078.05</ele>
        <time>2018-06-24T11:12:31Z</time>
      </trkpt>
      <trkpt lat="44.84099" lon="5.55006">
        <ele>2076.25</ele>
        <time>2018-06-24T11:12:56Z</time>
      </trkpt>
      <trkpt lat="44.8409" lon="5.54984">
        <ele>2071.25</ele>
        <time>2018-06-24T11:13:38Z</time>
      </trkpt>
      <trkpt lat="44.84077" lon="5.54965">
        <ele>2071.88</ele>
        <time>2018-06-24T11:14:01Z</time>
      </trkpt>
      <trkpt lat="44.84065" lon="5.54945">
        <ele>2065.85</ele>
        <time>2018-06-24T11:14:30Z</time>
      </trkpt>
      <trkpt lat="44.84054" lon="5.54925">
        <ele>2063.05</ele>
        <time>2018-06-24T11:14:51Z</time>
      </trkpt>
      <trkpt lat="44.84041" lon="5.54907">
        <ele>2062.1</ele>
        <time>2018-06-24T11:15:11Z</time>
      </trkpt>
      <trkpt lat="44.84027" lon="5.54888">
        <ele>2063.24</ele>
        <time>2018-06-24T11:15:30Z</time>
      </trkpt>
      <trkpt lat="44.84013" lon="5.54871">
        <ele>2060.21</ele>
        <time>2018-06-24T11:15:50Z</time>
      </trkpt>
      <trkpt lat="44.84002" lon="5.54852">
        <ele>2053.25</ele>
        <time>2018-06-24T11:19:19Z</time>
      </trkpt>
      <trkpt lat="44.8399" lon="5.54831">
        <ele>2050.25</ele>
        <time>2018-06-24T11:19:41Z</time>
      </trkpt>
      <trkpt lat="44.83975" lon="5.54817">
        <ele>2045.25</ele>
        <time>2018-06-24T11:20:06Z</time>
      </trkpt>
      <trkpt lat="44.83961" lon="5.54801">
        <ele>2044.25</ele>
        <time>2018-06-24T11:21:24Z</time>
      </trkpt>
      <trkpt lat="44.83964" lon="5.54776">
        <ele>2045.95</ele>
        <time>2018-06-24T11:24:39Z</time>
      </trkpt>
      <trkpt lat="44.83956" lon="5.54752">
        <ele>2000.09</ele>
        <time>2018-06-24T11:28:54Z</time>
      </trkpt>
      <trkpt lat="44.83951" lon="5.54728">
        <ele>2007.05</ele>
        <time>2018-06-24T11:30:32Z</time>
      </trkpt>
      <trkpt lat="44.83957" lon="5.54704">
        <ele>1965.09</ele>
        <time>2018-06-24T11:36:17Z</time>
      </trkpt>
      <trkpt lat="44.83955" lon="5.54678">
        <ele>1942.85</ele>
        <time>2018-06-24T11:39:40Z</time>
      </trkpt>
      <trkpt lat="44.8395" lon="5.54653">
        <ele>1923.02</ele>
        <time>2018-06-24T11:42:16Z</time>
      </trkpt>
      <trkpt lat="44.83948" lon="5.54627">
        <ele>1909.04</ele>
        <time>2018-06-24T11:46:11Z</time>
      </trkpt>
      <trkpt lat="44.83958" lon="5.54606">
        <ele>1877.25</ele>
        <time>2018-06-24T12:18:59Z</time>
      </trkpt>
      <trkpt lat="44.8398" lon="5.54589">
        <ele>1882.65</ele>
        <time>2018-06-24T12:40:38Z</time>
      </trkpt>
      <trkpt lat="44.83965" lon="5.54603">
        <ele>1877.49</ele>
        <time>2018-06-24T12:40:42Z</time>
      </trkpt>
      <trkpt lat="44.8398" lon="5.54584">
        <ele>1890.8</ele>
        <time>2018-06-24T12:43:40Z</time>
      </trkpt>
      <trkpt lat="44.83965" lon="5.54601">
        <ele>1888.77</ele>
        <time>2018-06-24T13:02:55Z</time>
      </trkpt>
      <trkpt lat="44.8398" lon="5.54586">
        <ele>1882.09</ele>
        <time>2018-06-24T13:05:01Z</time>
      </trkpt>
      <trkpt lat="44.84006" lon="5.5459">
        <ele>1882.85</ele>
        <time>2018-06-24T13:05:08Z</time>
      </trkpt>
      <trkpt lat="44.83978" lon="5.54597">
        <ele>1882.05</ele>
        <time>2018-06-24T13:05:12Z</time>
      </trkpt>
      <trkpt lat="44.8396" lon="5.5461">
        <ele>1881.88</ele>
        <time>2018-06-24T13:05:22Z</time>
      </trkpt>
      <trkpt lat="44.83984" lon="5.54604">
        <ele>1881.24</ele>
        <time>2018-06-24T13:05:24Z</time>
      </trkpt>
      <trkpt lat="44.84004" lon="5.54616">
        <ele>1882.05</ele>
        <time>2018-06-24T13:05:30Z</time>
      </trkpt>
      <trkpt lat="44.83998" lon="5.54588">
        <ele>1878.85</ele>
        <time>2018-06-24T13:05:49Z</time>
      </trkpt>
      <trkpt lat="44.84004" lon="5.54612">
        <ele>1811.09</ele>
        <time>2018-06-24T13:19:14Z</time>
      </trkpt>
      <trkpt lat="44.8402" lon="5.54626">
        <ele>1811.07</ele>
        <time>2018-06-24T13:19:48Z</time>
      </trkpt>
      <trkpt lat="44.84033" lon="5.54648">
        <ele>1809.41</ele>
        <time>2018-06-24T13:22:02Z</time>
      </trkpt>
      <trkpt lat="44.8405" lon="5.54657">
        <ele>1807.04</ele>
        <time>2018-06-24T13:22:40Z</time>
      </trkpt>
      <trkpt lat="44.8406" lon="5.54679">
        <ele>1801.89</ele>
        <time>2018-06-24T13:23:40Z</time>
      </trkpt>
      <trkpt lat="44.84079" lon="5.54681">
        <ele>1792.09</ele>
        <time>2018-06-24T13:24:07Z</time>
      </trkpt>
      <trkpt lat="44.84097" lon="5.54681">
        <ele>1783.05</ele>
        <time>2018-06-24T13:24:36Z</time>
      </trkpt>
      <trkpt lat="44.84115" lon="5.54675">
        <ele>1778.24</ele>
        <time>2018-06-24T13:25:52Z</time>
      </trkpt>
      <trkpt lat="44.84134" lon="5.54678">
        <ele>1769.84</ele>
        <time>2018-06-24T13:26:18Z</time>
      </trkpt>
      <trkpt lat="44.84124" lon="5.54655">
        <ele>1754.04</ele>
        <time>2018-06-24T13:27:14Z</time>
      </trkpt>
      <trkpt lat="44.84113" lon="5.54634">
        <ele>1754</ele>
        <time>2018-06-24T13:27:29Z</time>
      </trkpt>
      <trkpt lat="44.84101" lon="5.54614">
        <ele>1747.98</ele>
        <time>2018-06-24T13:27:46Z</time>
      </trkpt>
      <trkpt lat="44.84107" lon="5.54589">
        <ele>1737.98</ele>
        <time>2018-06-24T13:28:11Z</time>
      </trkpt>
      <trkpt lat="44.84115" lon="5.54565">
        <ele>1724.47</ele>
        <time>2018-06-24T13:28:30Z</time>
      </trkpt>
      <trkpt lat="44.84115" lon="5.54538">
        <ele>1723.08</ele>
        <time>2018-06-24T13:28:42Z</time>
      </trkpt>
      <trkpt lat="44.84108" lon="5.54515">
        <ele>1722.06</ele>
        <time>2018-06-24T13:29:01Z</time>
      </trkpt>
      <trkpt lat="44.84127" lon="5.54514">
        <ele>1709.13</ele>
        <time>2018-06-24T13:30:08Z</time>
      </trkpt>
      <trkpt lat="44.84143" lon="5.54528">
        <ele>1699.14</ele>
        <time>2018-06-24T13:30:24Z</time>
      </trkpt>
      <trkpt lat="44.8416" lon="5.54537">
        <ele>1695.06</ele>
        <time>2018-06-24T13:30:44Z</time>
      </trkpt>
      <trkpt lat="44.84178" lon="5.54543">
        <ele>1693.82</ele>
        <time>2018-06-24T13:30:58Z</time>
      </trkpt>
      <trkpt lat="44.84196" lon="5.54549">
        <ele>1691.17</ele>
        <time>2018-06-24T13:31:21Z</time>
      </trkpt>
      <trkpt lat="44.84215" lon="5.54553">
        <ele>1689.05</ele>
        <time>2018-06-24T13:31:50Z</time>
      </trkpt>
      <trkpt lat="44.84233" lon="5.54561">
        <ele>1675.14</ele>
        <time>2018-06-24T13:31:59Z</time>
      </trkpt>
      <trkpt lat="44.84253" lon="5.54562">
        <ele>1671.06</ele>
        <time>2018-06-24T13:32:22Z</time>
      </trkpt>
      <trkpt lat="44.84272" lon="5.54563">
        <ele>1666.03</ele>
        <time>2018-06-24T13:32:40Z</time>
      </trkpt>
      <trkpt lat="44.8429" lon="5.5456">
        <ele>1668.05</ele>
        <time>2018-06-24T13:33:03Z</time>
      </trkpt>
      <trkpt lat="44.84308" lon="5.54569">
        <ele>1665.85</ele>
        <time>2018-06-24T13:33:18Z</time>
      </trkpt>
      <trkpt lat="44.84324" lon="5.54585">
        <ele>1662.29</ele>
        <time>2018-06-24T13:33:32Z</time>
      </trkpt>
      <trkpt lat="44.84339" lon="5.546">
        <ele>1659.05</ele>
        <time>2018-06-24T13:33:49Z</time>
      </trkpt>
      <trkpt lat="44.84357" lon="5.54607">
        <ele>1662.25</ele>
        <time>2018-06-24T13:34:12Z</time>
      </trkpt>
      <trkpt lat="44.84377" lon="5.54615">
        <ele>1653.51</ele>
        <time>2018-06-24T13:34:38Z</time>
      </trkpt>
      <trkpt lat="44.84395" lon="5.54623">
        <ele>1647.41</ele>
        <time>2018-06-24T13:35:03Z</time>
      </trkpt>
      <trkpt lat="44.84384" lon="5.54602">
        <ele>1639.3</ele>
        <time>2018-06-24T13:36:12Z</time>
      </trkpt>
      <trkpt lat="44.84371" lon="5.54585">
        <ele>1634.86</ele>
        <time>2018-06-24T13:36:33Z</time>
      </trkpt>
      <trkpt lat="44.8436" lon="5.54564">
        <ele>1629.51</ele>
        <time>2018-06-24T13:36:55Z</time>
      </trkpt>
      <trkpt lat="44.84354" lon="5.54538">
        <ele>1635.78</ele>
        <time>2018-06-24T13:37:08Z</time>
      </trkpt>
      <trkpt lat="44.84347" lon="5.54513">
        <ele>1637.96</ele>
        <time>2018-06-24T13:37:25Z</time>
      </trkpt>
      <trkpt lat="44.84342" lon="5.54488">
        <ele>1630.33</ele>
        <time>2018-06-24T13:37:46Z</time>
      </trkpt>
      <trkpt lat="44.84334" lon="5.54464">
        <ele>1621.25</ele>
        <time>2018-06-24T13:38:14Z</time>
      </trkpt>
      <trkpt lat="44.84323" lon="5.54443">
        <ele>1622.85</ele>
        <time>2018-06-24T13:38:28Z</time>
      </trkpt>
      <trkpt lat="44.8431" lon="5.54424">
        <ele>1619.85</ele>
        <time>2018-06-24T13:38:44Z</time>
      </trkpt>
      <trkpt lat="44.84295" lon="5.54409">
        <ele>1619.01</ele>
        <time>2018-06-24T13:39:00Z</time>
      </trkpt>
      <trkpt lat="44.84283" lon="5.54389">
        <ele>1619.1</ele>
        <time>2018-06-24T13:39:28Z</time>
      </trkpt>
      <trkpt lat="44.8427" lon="5.54368">
        <ele>1615.89</ele>
        <time>2018-06-24T13:39:46Z</time>
      </trkpt>
      <trkpt lat="44.84255" lon="5.54351">
        <ele>1609.88</ele>
        <time>2018-06-24T13:40:10Z</time>
      </trkpt>
      <trkpt lat="44.84252" lon="5.54325">
        <ele>1597</ele>
        <time>2018-06-24T13:40:26Z</time>
      </trkpt>
      <trkpt lat="44.84258" lon="5.54301">
        <ele>1596.02</ele>
        <time>2018-06-24T13:40:42Z</time>
      </trkpt>
      <trkpt lat="44.8427" lon="5.5428">
        <ele>1585.05</ele>
        <time>2018-06-24T13:41:00Z</time>
      </trkpt>
      <trkpt lat="44.8427" lon="5.54255">
        <ele>1585.85</ele>
        <time>2018-06-24T13:41:21Z</time>
      </trkpt>
      <trkpt lat="44.84266" lon="5.5423">
        <ele>1575.86</ele>
        <time>2018-06-24T13:41:43Z</time>
      </trkpt>
      <trkpt lat="44.84256" lon="5.54209">
        <ele>1574.06</ele>
        <time>2018-06-24T13:42:03Z</time>
      </trkpt>
      <trkpt lat="44.84251" lon="5.54183">
        <ele>1574.08</ele>
        <time>2018-06-24T13:42:25Z</time>
      </trkpt>
      <trkpt lat="44.84241" lon="5.5416">
        <ele>1574.88</ele>
        <time>2018-06-24T13:42:40Z</time>
      </trkpt>
      <trkpt lat="44.84237" lon="5.54134">
        <ele>1570.88</ele>
        <time>2018-06-24T13:42:57Z</time>
      </trkpt>
      <trkpt lat="44.84235" lon="5.54108">
        <ele>1570.18</ele>
        <time>2018-06-24T13:43:11Z</time>
      </trkpt>
      <trkpt lat="44.84227" lon="5.54085">
        <ele>1563.31</ele>
        <time>2018-06-24T13:43:38Z</time>
      </trkpt>
      <trkpt lat="44.84231" lon="5.54058">
        <ele>1557.28</ele>
        <time>2018-06-24T13:44:25Z</time>
      </trkpt>
      <trkpt lat="44.84223" lon="5.54034">
        <ele>1550.09</ele>
        <time>2018-06-24T13:44:51Z</time>
      </trkpt>
      <trkpt lat="44.84224" lon="5.54007">
        <ele>1546.89</ele>
        <time>2018-06-24T13:45:12Z</time>
      </trkpt>
      <trkpt lat="44.84228" lon="5.53981">
        <ele>1544.26</ele>
        <time>2018-06-24T13:45:28Z</time>
      </trkpt>
      <trkpt lat="44.84239" lon="5.53961">
        <ele>1542.06</ele>
        <time>2018-06-24T13:45:49Z</time>
      </trkpt>
      <trkpt lat="44.84244" lon="5.53935">
        <ele>1537.41</ele>
        <time>2018-06-24T13:46:03Z</time>
      </trkpt>
      <trkpt lat="44.84259" lon="5.53919">
        <ele>1535.07</ele>
        <time>2018-06-24T13:46:21Z</time>
      </trkpt>
      <trkpt lat="44.84272" lon="5.53936">
        <ele>1517.25</ele>
        <time>2018-06-24T13:46:56Z</time>
      </trkpt>
      <trkpt lat="44.84277" lon="5.53961">
        <ele>1514.52</ele>
        <time>2018-06-24T13:47:24Z</time>
      </trkpt>
      <trkpt lat="44.84289" lon="5.5398">
        <ele>1510.63</ele>
        <time>2018-06-24T13:47:58Z</time>
      </trkpt>
      <trkpt lat="44.84307" lon="5.53979">
        <ele>1511.89</ele>
        <time>2018-06-24T13:48:22Z</time>
      </trkpt>
      <trkpt lat="44.84325" lon="5.53981">
        <ele>1503.08</ele>
        <time>2018-06-24T13:48:38Z</time>
      </trkpt>
      <trkpt lat="44.84344" lon="5.53983">
        <ele>1493.88</ele>
        <time>2018-06-24T13:49:11Z</time>
      </trkpt>
      <trkpt lat="44.84357" lon="5.53964">
        <ele>1489.85</ele>
        <time>2018-06-24T13:49:41Z</time>
      </trkpt>
      <trkpt lat="44.84373" lon="5.53973">
        <ele>1483.93</ele>
        <time>2018-06-24T13:50:11Z</time>
      </trkpt>
      <trkpt lat="44.84385" lon="5.53993">
        <ele>1482.91</ele>
        <time>2018-06-24T13:50:32Z</time>
      </trkpt>
      <trkpt lat="44.84393" lon="5.54016">
        <ele>1478.93</ele>
        <time>2018-06-24T13:50:54Z</time>
      </trkpt>
      <trkpt lat="44.84398" lon="5.54042">
        <ele>1477.7</ele>
        <time>2018-06-24T13:51:23Z</time>
      </trkpt>
      <trkpt lat="44.84403" lon="5.54068">
        <ele>1473.62</ele>
        <time>2018-06-24T13:51:49Z</time>
      </trkpt>
      <trkpt lat="44.84407" lon="5.54093">
        <ele>1478.15</ele>
        <time>2018-06-24T13:51:57Z</time>
      </trkpt>
      <trkpt lat="44.84416" lon="5.54116">
        <ele>1473.04</ele>
        <time>2018-06-24T13:52:33Z</time>
      </trkpt>
      <trkpt lat="44.84428" lon="5.54135">
        <ele>1452.64</ele>
        <time>2018-06-24T13:52:53Z</time>
      </trkpt>
      <trkpt lat="44.84443" lon="5.5415">
        <ele>1454</ele>
        <time>2018-06-24T13:53:08Z</time>
      </trkpt>
      <trkpt lat="44.84451" lon="5.54173">
        <ele>1446.58</ele>
        <time>2018-06-24T13:53:28Z</time>
      </trkpt>
      <trkpt lat="44.84469" lon="5.54175">
        <ele>1439.41</ele>
        <time>2018-06-24T13:53:54Z</time>
      </trkpt>
      <trkpt lat="44.84488" lon="5.54182">
        <ele>1441.05</ele>
        <time>2018-06-24T13:54:11Z</time>
      </trkpt>
      <trkpt lat="44.84503" lon="5.54202">
        <ele>1441.4</ele>
        <time>2018-06-24T13:54:25Z</time>
      </trkpt>
      <trkpt lat="44.84511" lon="5.54226">
        <ele>1443.24</ele>
        <time>2018-06-24T13:54:43Z</time>
      </trkpt>
      <trkpt lat="44.84528" lon="5.54238">
        <ele>1436.06</ele>
        <time>2018-06-24T13:55:02Z</time>
      </trkpt>
      <trkpt lat="44.84542" lon="5.54256">
        <ele>1433.06</ele>
        <time>2018-06-24T13:55:23Z</time>
      </trkpt>
      <trkpt lat="44.84557" lon="5.54268">
        <ele>1424.06</ele>
        <time>2018-06-24T13:55:50Z</time>
      </trkpt>
      <trkpt lat="44.84575" lon="5.54277">
        <ele>1421.29</ele>
        <time>2018-06-24T13:56:17Z</time>
      </trkpt>
      <trkpt lat="44.84594" lon="5.54284">
        <ele>1412.69</ele>
        <time>2018-06-24T13:56:47Z</time>
      </trkpt>
      <trkpt lat="44.84613" lon="5.54285">
        <ele>1409.04</ele>
        <time>2018-06-24T13:57:01Z</time>
      </trkpt>
      <trkpt lat="44.84631" lon="5.54286">
        <ele>1403.46</ele>
        <time>2018-06-24T13:57:28Z</time>
      </trkpt>
      <trkpt lat="44.8465" lon="5.54293">
        <ele>1391.13</ele>
        <time>2018-06-24T13:57:50Z</time>
      </trkpt>
      <trkpt lat="44.84666" lon="5.54281">
        <ele>1374.05</ele>
        <time>2018-06-24T13:58:19Z</time>
      </trkpt>
      <trkpt lat="44.84677" lon="5.54259">
        <ele>1370.85</ele>
        <time>2018-06-24T13:58:38Z</time>
      </trkpt>
      <trkpt lat="44.84687" lon="5.54237">
        <ele>1356.81</ele>
        <time>2018-06-24T13:59:56Z</time>
      </trkpt>
      <trkpt lat="44.84702" lon="5.54222">
        <ele>1358.62</ele>
        <time>2018-06-24T14:00:18Z</time>
      </trkpt>
      <trkpt lat="44.84721" lon="5.54221">
        <ele>1354.04</ele>
        <time>2018-06-24T14:00:38Z</time>
      </trkpt>
      <trkpt lat="44.84739" lon="5.54223">
        <ele>1352.24</ele>
        <time>2018-06-24T14:01:01Z</time>
      </trkpt>
      <trkpt lat="44.84756" lon="5.54235">
        <ele>1344.04</ele>
        <time>2018-06-24T14:01:14Z</time>
      </trkpt>
      <trkpt lat="44.84773" lon="5.54243">
        <ele>1343.05</ele>
        <time>2018-06-24T14:01:28Z</time>
      </trkpt>
      <trkpt lat="44.84789" lon="5.54255">
        <ele>1338.02</ele>
        <time>2018-06-24T14:01:41Z</time>
      </trkpt>
      <trkpt lat="44.84803" lon="5.54272">
        <ele>1342.99</ele>
        <time>2018-06-24T14:02:04Z</time>
      </trkpt>
      <trkpt lat="44.84813" lon="5.54294">
        <ele>1337.24</ele>
        <time>2018-06-24T14:02:17Z</time>
      </trkpt>
      <trkpt lat="44.84827" lon="5.54313">
        <ele>1335.05</ele>
        <time>2018-06-24T14:02:30Z</time>
      </trkpt>
      <trkpt lat="44.84844" lon="5.54325">
        <ele>1339.04</ele>
        <time>2018-06-24T14:02:47Z</time>
      </trkpt>
      <trkpt lat="44.84858" lon="5.54343">
        <ele>1333.05</ele>
        <time>2018-06-24T14:03:23Z</time>
      </trkpt>
      <trkpt lat="44.84874" lon="5.54358">
        <ele>1324.47</ele>
        <time>2018-06-24T14:03:44Z</time>
      </trkpt>
      <trkpt lat="44.84886" lon="5.54378">
        <ele>1325.25</ele>
        <time>2018-06-24T14:04:04Z</time>
      </trkpt>
      <trkpt lat="44.84903" lon="5.54388">
        <ele>1324.25</ele>
        <time>2018-06-24T14:04:18Z</time>
      </trkpt>
      <trkpt lat="44.84915" lon="5.54406">
        <ele>1317.24</ele>
        <time>2018-06-24T14:04:39Z</time>
      </trkpt>
      <trkpt lat="44.84932" lon="5.54419">
        <ele>1309.41</ele>
        <time>2018-06-24T14:04:55Z</time>
      </trkpt>
      <trkpt lat="44.84948" lon="5.54432">
        <ele>1304.17</ele>
        <time>2018-06-24T14:05:16Z</time>
      </trkpt>
      <trkpt lat="44.8496" lon="5.54451">
        <ele>1303.28</ele>
        <time>2018-06-24T14:05:38Z</time>
      </trkpt>
      <trkpt lat="44.84971" lon="5.54473">
        <ele>1299.04</ele>
        <time>2018-06-24T14:05:57Z</time>
      </trkpt>
      <trkpt lat="44.84981" lon="5.54495">
        <ele>1301.05</ele>
        <time>2018-06-24T14:06:16Z</time>
      </trkpt>
      <trkpt lat="44.84991" lon="5.54518">
        <ele>1298.13</ele>
        <time>2018-06-24T14:06:38Z</time>
      </trkpt>
      <trkpt lat="44.85" lon="5.5454">
        <ele>1295.46</ele>
        <time>2018-06-24T14:06:52Z</time>
      </trkpt>
      <trkpt lat="44.85016" lon="5.54558">
        <ele>1296.25</ele>
        <time>2018-06-24T14:07:07Z</time>
      </trkpt>
      <trkpt lat="44.85035" lon="5.54564">
        <ele>1287.33</ele>
        <time>2018-06-24T14:07:27Z</time>
      </trkpt>
      <trkpt lat="44.85053" lon="5.54567">
        <ele>1284.28</ele>
        <time>2018-06-24T14:07:45Z</time>
      </trkpt>
      <trkpt lat="44.85071" lon="5.54568">
        <ele>1287.89</ele>
        <time>2018-06-24T14:08:01Z</time>
      </trkpt>
      <trkpt lat="44.85089" lon="5.5457">
        <ele>1280.06</ele>
        <time>2018-06-24T14:08:20Z</time>
      </trkpt>
      <trkpt lat="44.85107" lon="5.54574">
        <ele>1273.26</ele>
        <time>2018-06-24T14:08:36Z</time>
      </trkpt>
      <trkpt lat="44.85126" lon="5.54581">
        <ele>1276.09</ele>
        <time>2018-06-24T14:08:48Z</time>
      </trkpt>
      <trkpt lat="44.85141" lon="5.54596">
        <ele>1275.08</ele>
        <time>2018-06-24T14:09:08Z</time>
      </trkpt>
      <trkpt lat="44.8516" lon="5.54601">
        <ele>1272.8</ele>
        <time>2018-06-24T14:09:24Z</time>
      </trkpt>
      <trkpt lat="44.85178" lon="5.54606">
        <ele>1271.28</ele>
        <time>2018-06-24T14:09:37Z</time>
      </trkpt>
      <trkpt lat="44.85197" lon="5.54602">
        <ele>1270.26</ele>
        <time>2018-06-24T14:09:59Z</time>
      </trkpt>
      <trkpt lat="44.85215" lon="5.54599">
        <ele>1264.26</ele>
        <time>2018-06-24T14:10:18Z</time>
      </trkpt>
      <trkpt lat="44.85233" lon="5.54598">
        <ele>1261.02</ele>
        <time>2018-06-24T14:10:29Z</time>
      </trkpt>
      <trkpt lat="44.85252" lon="5.54595">
        <ele>1272.42</ele>
        <time>2018-06-24T14:10:42Z</time>
      </trkpt>
      <trkpt lat="44.8527" lon="5.54601">
        <ele>1271.06</ele>
        <time>2018-06-24T14:10:57Z</time>
      </trkpt>
      <trkpt lat="44.85288" lon="5.54608">
        <ele>1257.96</ele>
        <time>2018-06-24T14:11:11Z</time>
      </trkpt>
      <trkpt lat="44.85307" lon="5.54612">
        <ele>1252.01</ele>
        <time>2018-06-24T14:11:25Z</time>
      </trkpt>
      <trkpt lat="44.85324" lon="5.54623">
        <ele>1251.09</ele>
        <time>2018-06-24T14:11:37Z</time>
      </trkpt>
      <trkpt lat="44.85343" lon="5.54628">
        <ele>1252.93</ele>
        <time>2018-06-24T14:12:07Z</time>
      </trkpt>
      <trkpt lat="44.85361" lon="5.54636">
        <ele>1246.04</ele>
        <time>2018-06-24T14:12:24Z</time>
      </trkpt>
      <trkpt lat="44.85378" lon="5.54648">
        <ele>1250.81</ele>
        <time>2018-06-24T14:12:40Z</time>
      </trkpt>
      <trkpt lat="44.85393" lon="5.54664">
        <ele>1245.9</ele>
        <time>2018-06-24T14:12:57Z</time>
      </trkpt>
      <trkpt lat="44.85408" lon="5.54677">
        <ele>1244.89</ele>
        <time>2018-06-24T14:13:10Z</time>
      </trkpt>
      <trkpt lat="44.8542" lon="5.54696">
        <ele>1242.26</ele>
        <time>2018-06-24T14:13:28Z</time>
      </trkpt>
      <trkpt lat="44.85434" lon="5.54714">
        <ele>1240.86</ele>
        <time>2018-06-24T14:13:44Z</time>
      </trkpt>
      <trkpt lat="44.85449" lon="5.5473">
        <ele>1233.89</ele>
        <time>2018-06-24T14:14:02Z</time>
      </trkpt>
      <trkpt lat="44.85466" lon="5.54743">
        <ele>1238.8</ele>
        <time>2018-06-24T14:14:14Z</time>
      </trkpt>
      <trkpt lat="44.85482" lon="5.54754">
        <ele>1240.86</ele>
        <time>2018-06-24T14:14:26Z</time>
      </trkpt>
      <trkpt lat="44.85499" lon="5.54765">
        <ele>1236.21</ele>
        <time>2018-06-24T14:14:40Z</time>
      </trkpt>
      <trkpt lat="44.85514" lon="5.54779">
        <ele>1237.2</ele>
        <time>2018-06-24T14:14:56Z</time>
      </trkpt>
      <trkpt lat="44.8553" lon="5.54793">
        <ele>1231.48</ele>
        <time>2018-06-24T14:15:13Z</time>
      </trkpt>
      <trkpt lat="44.85544" lon="5.54808">
        <ele>1233.05</ele>
        <time>2018-06-24T14:15:28Z</time>
      </trkpt>
      <trkpt lat="44.85561" lon="5.54819">
        <ele>1226.07</ele>
        <time>2018-06-24T14:16:03Z</time>
      </trkpt>
      <trkpt lat="44.85575" lon="5.54836">
        <ele>1220.84</ele>
        <time>2018-06-24T14:16:21Z</time>
      </trkpt>
      <trkpt lat="44.85592" lon="5.54847">
        <ele>1226</ele>
        <time>2018-06-24T14:16:34Z</time>
      </trkpt>
      <trkpt lat="44.85606" lon="5.54867">
        <ele>1222.86</ele>
        <time>2018-06-24T14:16:51Z</time>
      </trkpt>
      <trkpt lat="44.85611" lon="5.54893">
        <ele>1218.04</ele>
        <time>2018-06-24T14:17:12Z</time>
      </trkpt>
      <trkpt lat="44.85609" lon="5.54919">
        <ele>1220.05</ele>
        <time>2018-06-24T14:17:25Z</time>
      </trkpt>
      <trkpt lat="44.85609" lon="5.54944">
        <ele>1213.93</ele>
        <time>2018-06-24T14:17:41Z</time>
      </trkpt>
      <trkpt lat="44.85611" lon="5.54971">
        <ele>1213.85</ele>
        <time>2018-06-24T14:17:55Z</time>
      </trkpt>
      <trkpt lat="44.85613" lon="5.54998">
        <ele>1208.1</ele>
        <time>2018-06-24T14:18:12Z</time>
      </trkpt>
      <trkpt lat="44.85612" lon="5.55024">
        <ele>1213.03</ele>
        <time>2018-06-24T14:18:24Z</time>
      </trkpt>
      <trkpt lat="44.85612" lon="5.5505">
        <ele>1211.08</ele>
        <time>2018-06-24T14:18:42Z</time>
      </trkpt>
      <trkpt lat="44.85614" lon="5.55077">
        <ele>1213.22</ele>
        <time>2018-06-24T14:18:58Z</time>
      </trkpt>
      <trkpt lat="44.85615" lon="5.55103">
        <ele>1210.86</ele>
        <time>2018-06-24T14:19:16Z</time>
      </trkpt>
      <trkpt lat="44.85613" lon="5.55129">
        <ele>1207.05</ele>
        <time>2018-06-24T14:19:32Z</time>
      </trkpt>
      <trkpt lat="44.85615" lon="5.55155">
        <ele>1196.1</ele>
        <time>2018-06-24T14:19:51Z</time>
      </trkpt>
      <trkpt lat="44.85611" lon="5.5518">
        <ele>1194.65</ele>
        <time>2018-06-24T14:20:03Z</time>
      </trkpt>
      <trkpt lat="44.8561" lon="5.55206">
        <ele>1194.88</ele>
        <time>2018-06-24T14:20:15Z</time>
      </trkpt>
      <trkpt lat="44.85615" lon="5.55231">
        <ele>1197.85</ele>
        <time>2018-06-24T14:20:28Z</time>
      </trkpt>
      <trkpt lat="44.85622" lon="5.55254">
        <ele>1197.84</ele>
        <time>2018-06-24T14:20:43Z</time>
      </trkpt>
      <trkpt lat="44.85629" lon="5.5528">
        <ele>1193.1</ele>
        <time>2018-06-24T14:20:58Z</time>
      </trkpt>
      <trkpt lat="44.85637" lon="5.55305">
        <ele>1193.09</ele>
        <time>2018-06-24T14:21:15Z</time>
      </trkpt>
      <trkpt lat="44.85648" lon="5.55327">
        <ele>1190.84</ele>
        <time>2018-06-24T14:21:33Z</time>
      </trkpt>
      <trkpt lat="44.8566" lon="5.55347">
        <ele>1198.04</ele>
        <time>2018-06-24T14:21:50Z</time>
      </trkpt>
      <trkpt lat="44.85672" lon="5.55367">
        <ele>1172.36</ele>
        <time>2018-06-24T14:22:04Z</time>
      </trkpt>
      <trkpt lat="44.85681" lon="5.55389">
        <ele>1163.09</ele>
        <time>2018-06-24T14:22:20Z</time>
      </trkpt>
      <trkpt lat="44.85697" lon="5.55405">
        <ele>1148.46</ele>
        <time>2018-06-24T14:22:34Z</time>
      </trkpt>
      <trkpt lat="44.85709" lon="5.55425">
        <ele>1144.18</ele>
        <time>2018-06-24T14:22:53Z</time>
      </trkpt>
      <trkpt lat="44.85724" lon="5.55441">
        <ele>1144.85</ele>
        <time>2018-06-24T14:23:08Z</time>
      </trkpt>
      <trkpt lat="44.85735" lon="5.55461">
        <ele>1143.05</ele>
        <time>2018-06-24T14:23:25Z</time>
      </trkpt>
      <trkpt lat="44.85744" lon="5.55484">
        <ele>1135.29</ele>
        <time>2018-06-24T14:23:41Z</time>
      </trkpt>
      <trkpt lat="44.85743" lon="5.5551">
        <ele>1128.89</ele>
        <time>2018-06-24T14:23:57Z</time>
      </trkpt>
      <trkpt lat="44.85746" lon="5.55535">
        <ele>1128.26</ele>
        <time>2018-06-24T14:24:11Z</time>
      </trkpt>
      <trkpt lat="44.85751" lon="5.5556">
        <ele>1123.21</ele>
        <time>2018-06-24T14:24:26Z</time>
      </trkpt>
      <trkpt lat="44.85757" lon="5.55584">
        <ele>1117.88</ele>
        <time>2018-06-24T14:24:43Z</time>
      </trkpt>
      <trkpt lat="44.85765" lon="5.55608">
        <ele>1115.04</ele>
        <time>2018-06-24T14:24:59Z</time>
      </trkpt>
      <trkpt lat="44.85776" lon="5.55631">
        <ele>1106.06</ele>
        <time>2018-06-24T14:25:16Z</time>
      </trkpt>
      <trkpt lat="44.85785" lon="5.55653">
        <ele>1102.09</ele>
        <time>2018-06-24T14:25:31Z</time>
      </trkpt>
      <trkpt lat="44.85796" lon="5.55676">
        <ele>1102.04</ele>
        <time>2018-06-24T14:25:48Z</time>
      </trkpt>
      <trkpt lat="44.85799" lon="5.55702">
        <ele>1109.84</ele>
        <time>2018-06-24T14:26:03Z</time>
      </trkpt>
      <trkpt lat="44.85801" lon="5.55728">
        <ele>1110.04</ele>
        <time>2018-06-24T14:26:19Z</time>
      </trkpt>
      <trkpt lat="44.85797" lon="5.55753">
        <ele>1119.01</ele>
        <time>2018-06-24T14:26:40Z</time>
      </trkpt>
    </trkseg>
  </trk>
</gpx>